createdAt,value
2023-05-10T00:00:56.078Z,100606.53
2023-05-10T00:03:22.852Z,100605.63
2023-05-10T00:05:49.537Z,100618.97
2023-05-10T00:08:16.100Z,100603.84
2023-05-10T00:10:42.760Z,100589.66
2023-05-10T00:13:09.417Z,100624.28
2023-05-10T00:15:36.160Z,100616.28
2023-05-10T00:18:02.970Z,100620.72
2023-05-10T00:20:30.667Z,100590.53
2023-05-10T00:22:57.273Z,100603.88
2023-05-10T00:25:23.967Z,100616.28
2023-05-10T00:27:50.807Z,100610.06
2023-05-10T00:30:17.604Z,100578.97
2023-05-10T00:32:44.609Z,100598.50
2023-05-10T00:35:12.274Z,100619.84
2023-05-10T00:37:38.885Z,100586.06
2023-05-10T00:40:06.823Z,100602.06
2023-05-10T00:42:33.663Z,100609.16
2023-05-10T00:45:00.260Z,100609.16
2023-05-10T00:47:27.422Z,100599.34
2023-05-10T00:50:10.056Z,100608.25
2023-05-10T00:52:36.910Z,100605.59
2023-05-10T00:55:04.994Z,100600.25
2023-05-10T00:57:32.174Z,100619.78
2023-05-10T00:59:59.867Z,100613.56
2023-05-10T01:02:26.640Z,100619.78
2023-05-10T01:04:53.447Z,100599.34
2023-05-10T01:07:20.095Z,100598.44
2023-05-10T01:09:46.819Z,100605.56
2023-05-10T01:12:13.712Z,100548.75
2023-05-10T01:14:41.302Z,100624.22
2023-05-10T01:17:10.255Z,100513.25
2023-05-10T01:19:38.576Z,100552.28
2023-05-10T01:22:09.706Z,100626.03
2023-05-10T01:24:58.551Z,100618.91
2023-05-10T01:27:34.282Z,100626.00
2023-05-10T01:30:30.676Z,100621.56
2023-05-10T01:33:15.544Z,100624.22
2023-05-10T01:35:51.313Z,100626.00
2023-05-10T01:38:42.674Z,100610.03
2023-05-10T01:41:26.244Z,100589.59
2023-05-10T01:44:10.757Z,100605.59
2023-05-10T01:46:39.488Z,100622.47
2023-05-10T01:49:12.718Z,100593.19
2023-05-10T01:51:48.502Z,100587.88
2023-05-10T01:54:19.585Z,100590.56
2023-05-10T01:56:51.275Z,100589.66
2023-05-10T01:59:20.116Z,100609.19
2023-05-10T02:01:49.641Z,100583.47
2023-05-10T02:04:20.148Z,100612.75
2023-05-10T02:06:49.420Z,100618.97
2023-05-10T02:09:18.260Z,100601.22
2023-05-10T02:11:45.212Z,100619.88
2023-05-10T02:14:13.365Z,100617.22
2023-05-10T02:16:41.615Z,100616.34
2023-05-10T02:19:09.723Z,100619.91
2023-05-10T02:21:38.366Z,100619.03
2023-05-10T02:24:06.290Z,100637.69
2023-05-10T02:26:35.901Z,100528.47
2023-05-10T02:29:07.785Z,100553.34
2023-05-10T02:31:36.240Z,100645.69
2023-05-10T02:34:05.037Z,100626.19
2023-05-10T02:36:32.887Z,100619.97
2023-05-10T02:39:01.869Z,100639.53
2023-05-10T02:41:31.815Z,100643.09
2023-05-10T02:44:02.110Z,100613.78
2023-05-10T02:46:28.961Z,100652.88
2023-05-10T02:48:56.443Z,100628.88
2023-05-10T02:51:28.073Z,100586.22
2023-05-10T02:53:57.564Z,100627.09
2023-05-10T02:56:36.029Z,100623.53
2023-05-10T02:59:02.969Z,100660.88
2023-05-10T03:01:30.343Z,100644.00
2023-05-10T03:03:58.244Z,100632.44
2023-05-10T03:06:24.885Z,100634.22
2023-05-10T03:08:51.674Z,100632.44
2023-05-10T03:11:56.898Z,100661.75
2023-05-10T03:14:43.615Z,100653.75
2023-05-10T03:17:19.447Z,100652.88
2023-05-10T03:19:55.324Z,100660.88
2023-05-10T03:22:33.154Z,100626.22
2023-05-10T03:25:06.554Z,100638.66
2023-05-10T03:27:37.335Z,100639.53
2023-05-10T03:30:06.025Z,100653.75
2023-05-10T03:32:35.707Z,100612.88
2023-05-10T03:35:08.408Z,100658.16
2023-05-10T03:37:36.461Z,100668.81
2023-05-10T03:40:04.208Z,100651.09
2023-05-10T03:42:33.351Z,100637.75
2023-05-10T03:45:00.286Z,100653.75
2023-05-10T03:47:26.891Z,100675.94
2023-05-10T03:49:53.608Z,100673.28
2023-05-10T03:52:20.367Z,100662.59
2023-05-10T03:54:48.282Z,100648.41
2023-05-10T03:57:15.630Z,100654.66
2023-05-10T03:59:42.290Z,100667.03
2023-05-10T04:02:09.093Z,100683.94
2023-05-10T04:04:36.783Z,100682.16
2023-05-10T04:07:03.998Z,100663.50
2023-05-10T04:09:30.727Z,100667.94
2023-05-10T04:11:57.349Z,100678.59
2023-05-10T04:14:24.042Z,100667.03
2023-05-10T04:16:50.661Z,100602.22
2023-05-10T04:19:17.217Z,100667.03
2023-05-10T04:21:44.819Z,100687.47
2023-05-10T04:24:12.288Z,100694.59
2023-05-10T04:26:39.668Z,100684.81
2023-05-10T04:29:06.351Z,100672.38
2023-05-10T04:31:33.368Z,100694.59
2023-05-10T04:33:59.926Z,100683.03
2023-05-10T04:36:26.448Z,100682.16
2023-05-10T04:38:53.837Z,100675.94
2023-05-10T04:41:21.473Z,100670.59
2023-05-10T04:43:50.065Z,100681.25
2023-05-10T04:46:16.668Z,100659.94
2023-05-10T04:48:43.296Z,100653.72
2023-05-10T04:51:09.897Z,100675.03
2023-05-10T04:53:36.804Z,100675.94
2023-05-10T04:56:03.530Z,100689.25
2023-05-10T04:58:30.482Z,100694.59
2023-05-10T05:00:57.469Z,100700.81
2023-05-10T05:03:24.192Z,100687.47
2023-05-10T05:05:50.927Z,100711.47
2023-05-10T05:08:17.474Z,100707.91
2023-05-10T05:10:44.020Z,100715.03
2023-05-10T05:13:10.647Z,100710.59
2023-05-10T05:15:37.240Z,100679.47
2023-05-10T05:18:03.933Z,100707.03
2023-05-10T05:20:36.344Z,100683.00
2023-05-10T05:23:03.024Z,100715.03
2023-05-10T05:25:29.541Z,100696.34
2023-05-10T05:27:56.031Z,100695.47
2023-05-10T05:30:22.646Z,100706.13
2023-05-10T05:32:49.397Z,100722.13
2023-05-10T05:35:16.294Z,100722.16
2023-05-10T05:37:43.148Z,100716.81
2023-05-10T05:40:15.002Z,100704.34
2023-05-10T05:42:41.593Z,100727.47
2023-05-10T05:45:09.736Z,100721.28
2023-05-10T05:47:36.320Z,100721.28
2023-05-10T05:50:02.954Z,100717.75
2023-05-10T05:52:29.571Z,100717.75
2023-05-10T05:54:56.185Z,100707.13
2023-05-10T05:57:22.894Z,100726.63
2023-05-10T05:59:49.615Z,100739.97
2023-05-10T06:02:16.204Z,100721.31
2023-05-10T06:04:44.714Z,100707.13
2023-05-10T06:07:11.545Z,100723.09
2023-05-10T06:09:38.168Z,100711.53
2023-05-10T06:12:04.861Z,100728.41
2023-05-10T06:14:31.384Z,100739.97
2023-05-10T06:16:58.107Z,100752.44
2023-05-10T06:19:24.805Z,100757.78
2023-05-10T06:21:53.155Z,100659.09
2023-05-10T06:24:20.892Z,100759.56
2023-05-10T06:26:47.434Z,100756.00
2023-05-10T06:29:13.951Z,100691.09
2023-05-10T06:31:40.606Z,100742.66
2023-05-10T06:34:08.900Z,100758.66
2023-05-10T06:36:35.410Z,100692.84
2023-05-10T06:39:02.022Z,100739.94
2023-05-10T06:41:28.571Z,100728.34
2023-05-10T06:43:55.078Z,100698.16
2023-05-10T06:46:21.679Z,100776.41
2023-05-10T06:48:48.261Z,100767.53
2023-05-10T06:51:14.794Z,100763.97
2023-05-10T06:53:41.553Z,100787.09
2023-05-10T06:56:08.152Z,100787.09
2023-05-10T06:58:34.806Z,100759.53
2023-05-10T07:01:06.164Z,100769.31
2023-05-10T07:03:33.052Z,100792.44
2023-05-10T07:06:04.686Z,100793.31
2023-05-10T07:08:32.240Z,100795.97
2023-05-10T07:11:06.272Z,100779.09
2023-05-10T07:13:32.928Z,100800.47
2023-05-10T07:16:00.609Z,100805.78
2023-05-10T07:18:27.614Z,100735.50
2023-05-10T07:20:54.321Z,100807.53
2023-05-10T07:23:21.120Z,100810.19
2023-05-10T07:25:48.793Z,100687.47
2023-05-10T07:28:17.070Z,100747.03
2023-05-10T07:30:43.882Z,100788.75
2023-05-10T07:33:11.701Z,100804.69
2023-05-10T07:35:38.391Z,100788.59
2023-05-10T07:38:05.096Z,100809.91
2023-05-10T07:40:32.389Z,100812.47
2023-05-10T07:42:59.572Z,100795.66
2023-05-10T07:45:26.078Z,100763.66
2023-05-10T07:47:52.746Z,100815.22
2023-05-10T07:50:19.389Z,100745.97
2023-05-10T07:52:45.932Z,100826.00
2023-05-10T07:55:12.531Z,100745.09
2023-05-10T07:57:39.949Z,100820.69
2023-05-10T08:00:07.650Z,100823.41
2023-05-10T08:02:39.928Z,100830.59
2023-05-10T08:05:06.969Z,100824.41
2023-05-10T08:07:33.481Z,100833.28
2023-05-10T08:10:00.130Z,100815.50
2023-05-10T08:12:26.670Z,100814.63
2023-05-10T08:14:53.232Z,100819.88
2023-05-10T08:17:20.488Z,100831.38
2023-05-10T08:19:47.769Z,100837.56
2023-05-10T08:22:14.355Z,100803.66
2023-05-10T08:24:42.861Z,100820.41
2023-05-10T08:27:09.601Z,100829.13
2023-05-10T08:29:48.908Z,100821.84
2023-05-10T08:32:16.536Z,100837.72
2023-05-10T08:34:43.096Z,100829.63
2023-05-10T08:37:09.734Z,100856.22
2023-05-10T08:39:36.584Z,100840.13
2023-05-10T08:42:05.885Z,100790.50
2023-05-10T08:44:37.421Z,100830.78
2023-05-10T08:47:07.517Z,100857.75
2023-05-10T08:49:34.629Z,100866.69
2023-05-10T08:52:05.201Z,100856.97
2023-05-10T08:54:35.458Z,100801.91
2023-05-10T08:57:02.479Z,100824.19
2023-05-10T08:59:29.648Z,100848.28
2023-05-10T09:01:58.736Z,100875.81
2023-05-10T09:04:25.670Z,100701.59
2023-05-10T09:06:52.632Z,100859.88
2023-05-10T09:09:20.815Z,100807.28
2023-05-10T09:11:47.968Z,100794.75
2023-05-10T09:14:16.075Z,100825.69
2023-05-10T09:16:43.026Z,100860.94
2023-05-10T09:19:09.834Z,100894.69
2023-05-10T09:21:40.437Z,100828.00
2023-05-10T09:24:08.674Z,100889.25
2023-05-10T09:26:36.929Z,100908.81
2023-05-10T09:29:04.257Z,100893.03
2023-05-10T09:31:52.045Z,100912.06
2023-05-10T09:34:30.255Z,100906.97
2023-05-10T09:36:59.047Z,100871.53
2023-05-10T09:39:33.373Z,100909.00
2023-05-10T09:42:08.700Z,100933.06
2023-05-10T09:44:36.146Z,100858.34
2023-05-10T09:47:03.575Z,100924.22
2023-05-10T09:49:30.926Z,100852.13
2023-05-10T09:52:02.738Z,100921.53
2023-05-10T09:54:29.425Z,100930.41
2023-05-10T09:56:56.072Z,100909.91
2023-05-10T09:59:22.953Z,100923.28
2023-05-10T10:01:53.422Z,100890.38
2023-05-10T10:04:21.548Z,100879.72
2023-05-10T10:06:59.761Z,100873.47
2023-05-10T10:09:26.830Z,100942.94
2023-05-10T10:11:54.720Z,100947.38
2023-05-10T10:14:22.578Z,100939.38
2023-05-10T10:17:05.707Z,100916.22
2023-05-10T10:19:36.653Z,100938.47
2023-05-10T10:22:03.798Z,100891.28
2023-05-10T10:24:30.416Z,100949.97
2023-05-10T10:27:06.569Z,100928.56
2023-05-10T10:29:53.554Z,100870.63
2023-05-10T10:32:43.336Z,100880.28
2023-05-10T10:35:10.384Z,100953.94
2023-05-10T10:37:49.000Z,100886.25
2023-05-10T10:40:26.138Z,100953.84
2023-05-10T10:42:53.028Z,100886.25
2023-05-10T10:45:20.052Z,100945.91
2023-05-10T10:47:46.926Z,100893.47
2023-05-10T10:50:13.973Z,100942.50
2023-05-10T10:52:42.180Z,100887.44
2023-05-10T10:55:10.181Z,100947.97
2023-05-10T10:58:01.396Z,100952.47
2023-05-10T11:00:32.846Z,100931.97
2023-05-10T11:03:00.732Z,100935.41
2023-05-10T11:05:38.740Z,100954.00
2023-05-10T11:08:17.026Z,100946.63
2023-05-10T11:10:59.791Z,100889.47
2023-05-10T11:13:35.363Z,100950.53
2023-05-10T11:16:16.631Z,100963.69
2023-05-10T11:19:04.129Z,100954.28
2023-05-10T11:21:32.248Z,100905.28
2023-05-10T11:24:00.629Z,100959.19
2023-05-10T11:26:32.148Z,100953.44
2023-05-10T11:29:02.725Z,100901.84
2023-05-10T11:31:29.852Z,100961.03
2023-05-10T11:33:58.687Z,100901.25
2023-05-10T11:36:27.263Z,100965.09
2023-05-10T11:38:55.016Z,100902.91
2023-05-10T11:41:22.980Z,100974.75
2023-05-10T11:43:54.678Z,100970.53
2023-05-10T11:46:23.254Z,100971.59
2023-05-10T11:48:55.070Z,100970.47
2023-05-10T11:51:23.340Z,100961.66
2023-05-10T11:53:57.367Z,100956.84
2023-05-10T11:56:24.609Z,100957.63
2023-05-10T11:58:58.519Z,100954.03
2023-05-10T12:01:27.140Z,100934.72
2023-05-10T12:03:56.008Z,100954.25
2023-05-10T12:06:23.260Z,100969.59
2023-05-10T12:08:54.619Z,100968.75
2023-05-10T12:11:26.176Z,100871.06
2023-05-10T12:13:52.725Z,100978.75
2023-05-10T12:16:22.071Z,100927.97
2023-05-10T12:18:53.121Z,100976.06
2023-05-10T12:21:22.729Z,100962.69
2023-05-10T12:23:51.805Z,100964.78
2023-05-10T12:26:18.394Z,100966.03
2023-05-10T12:28:45.288Z,100965.53
2023-05-10T12:31:11.864Z,100916.88
2023-05-10T12:33:42.454Z,100982.81
2023-05-10T12:36:13.444Z,100961.00
2023-05-10T12:38:43.986Z,100981.50
2023-05-10T12:41:12.224Z,100971.28
2023-05-10T12:43:39.902Z,100978.59
2023-05-10T12:46:11.079Z,100965.09
2023-05-10T12:48:39.015Z,100982.13
2023-05-10T12:51:06.280Z,100930.78
2023-05-10T12:53:32.854Z,100836.28
2023-05-10T12:55:59.340Z,100990.94
2023-05-10T12:58:35.096Z,100940.97
2023-05-10T13:01:03.377Z,100926.94
2023-05-10T13:03:30.088Z,101005.44
2023-05-10T13:05:56.780Z,100994.13
2023-05-10T13:08:23.416Z,100989.97
2023-05-10T13:10:50.315Z,101004.59
2023-05-10T13:13:16.965Z,101006.59
2023-05-10T13:15:43.492Z,100955.00
2023-05-10T13:18:10.115Z,100972.53
2023-05-10T13:20:36.770Z,100913.84
2023-05-10T13:23:03.690Z,101006.00
2023-05-10T13:25:30.909Z,101009.53
2023-05-10T13:27:57.463Z,101008.28
2023-05-10T13:30:24.891Z,101002.59
2023-05-10T13:32:51.725Z,100948.31
2023-05-10T13:35:18.392Z,100998.97
2023-05-10T13:37:44.962Z,101012.16
2023-05-10T13:40:11.657Z,101013.84
2023-05-10T13:42:38.549Z,100990.28
2023-05-10T13:45:05.714Z,101016.72
2023-05-10T13:47:32.257Z,101001.38
2023-05-10T13:49:59.357Z,101023.84
2023-05-10T13:52:26.805Z,100995.06
2023-05-10T13:54:55.782Z,101002.44
2023-05-10T13:57:22.880Z,101016.91
2023-05-10T13:59:49.603Z,100998.22
2023-05-10T14:02:16.173Z,101023.97
2023-05-10T14:04:42.677Z,101012.31
2023-05-10T14:07:09.328Z,101027.69
2023-05-10T14:09:35.889Z,101025.97
2023-05-10T14:12:03.011Z,101008.94
2023-05-10T14:14:30.394Z,100994.94
2023-05-10T14:16:56.928Z,101019.69
2023-05-10T14:19:23.531Z,101007.69
2023-05-10T14:21:50.050Z,101009.94
2023-05-10T14:24:16.576Z,101004.53
2023-05-10T14:26:43.102Z,101013.75
2023-05-10T14:29:11.544Z,100983.81
2023-05-10T14:31:39.187Z,101003.59
2023-05-10T14:34:06.581Z,101001.44
2023-05-10T14:36:33.285Z,101003.03
2023-05-10T14:38:59.812Z,100985.75
2023-05-10T14:41:26.383Z,101025.25
2023-05-10T14:43:53.423Z,101027.72
2023-05-10T14:46:21.090Z,100999.66
2023-05-10T14:48:47.703Z,100950.31
2023-05-10T14:51:14.645Z,100983.69
2023-05-10T14:53:41.239Z,101023.06
2023-05-10T14:56:08.050Z,101011.56
2023-05-10T14:58:34.736Z,101014.06
2023-05-10T15:01:01.692Z,100925.03
2023-05-10T15:03:29.159Z,100997.56
2023-05-10T15:05:58.487Z,101015.50
2023-05-10T15:08:25.610Z,101017.22
2023-05-10T15:10:52.705Z,101005.97
2023-05-10T15:13:19.263Z,101012.47
2023-05-10T15:15:45.902Z,100956.34
2023-05-10T15:18:12.650Z,101010.81
2023-05-10T15:20:39.223Z,101013.91
2023-05-10T15:23:05.710Z,100915.78
2023-05-10T15:25:35.147Z,101006.72
2023-05-10T15:28:03.545Z,100962.28
2023-05-10T15:30:30.374Z,100964.53
2023-05-10T15:32:57.211Z,100973.25
2023-05-10T15:35:23.753Z,100917.94
2023-05-10T15:37:50.394Z,100996.91
2023-05-10T15:40:17.148Z,101003.97
2023-05-10T15:42:43.698Z,101019.41
2023-05-10T15:45:11.738Z,100969.34
2023-05-10T15:47:40.457Z,101012.81
2023-05-10T15:50:08.332Z,100946.41
2023-05-10T15:52:35.143Z,101035.38
2023-05-10T15:55:01.735Z,101015.13
2023-05-10T15:57:28.294Z,100954.38
2023-05-10T15:59:54.887Z,101032.91
2023-05-10T16:02:22.497Z,101039.13
2023-05-10T16:04:49.294Z,101047.94
2023-05-10T16:07:15.904Z,101040.47
2023-05-10T16:09:42.515Z,101029.63
2023-05-10T16:12:09.095Z,101031.88
2023-05-10T16:14:35.753Z,101044.53
2023-05-10T16:17:03.134Z,101014.97
2023-05-10T16:19:32.253Z,101024.69
2023-05-10T16:21:59.030Z,101049.13
2023-05-10T16:24:26.165Z,100974.16
2023-05-10T16:26:52.734Z,101019.50
2023-05-10T16:29:19.321Z,101040.09
2023-05-10T16:31:46.290Z,101020.63
2023-05-10T16:34:12.786Z,100963.13
2023-05-10T16:36:39.299Z,101046.81
2023-05-10T16:39:05.842Z,101040.41
2023-05-10T16:41:35.681Z,101050.09
2023-05-10T16:44:03.563Z,101047.19
2023-05-10T16:46:30.146Z,101043.78
2023-05-10T16:48:56.839Z,101053.50
2023-05-10T16:51:23.338Z,101058.75
2023-05-10T16:53:49.920Z,101066.16
2023-05-10T16:56:18.302Z,101064.41
2023-05-10T16:58:44.855Z,101080.47
2023-05-10T17:01:11.370Z,101075.00
2023-05-10T17:03:37.999Z,101083.00
2023-05-10T17:06:05.935Z,101074.19
2023-05-10T17:08:33.369Z,101003.03
2023-05-10T17:11:06.336Z,101061.84
2023-05-10T17:13:32.954Z,101083.13
2023-05-10T17:16:03.364Z,101084.06
2023-05-10T17:18:30.574Z,101076.03
2023-05-10T17:20:57.171Z,101012.22
2023-05-10T17:23:23.745Z,101077.81
2023-05-10T17:25:50.406Z,101083.06
2023-05-10T17:28:16.911Z,101085.72
2023-05-10T17:30:44.525Z,101079.50
2023-05-10T17:33:11.099Z,101089.22
2023-05-10T17:35:37.694Z,101080.47
2023-05-10T17:38:04.242Z,101082.56
2023-05-10T17:40:30.817Z,101088.22
2023-05-10T17:42:57.304Z,101102.56
2023-05-10T17:45:23.806Z,101024.38
2023-05-10T17:47:50.382Z,101037.94
2023-05-10T17:50:17.125Z,101101.25
2023-05-10T17:52:43.731Z,101031.19
2023-05-10T17:55:10.955Z,101094.50
2023-05-10T17:57:38.730Z,101041.28
2023-05-10T18:00:08.535Z,101091.22
2023-05-10T18:02:36.658Z,101086.88
2023-05-10T18:05:04.613Z,101021.91
2023-05-10T18:07:31.404Z,101084.25
2023-05-10T18:09:58.538Z,101093.25
2023-05-10T18:12:25.172Z,101087.94
2023-05-10T18:14:51.835Z,101100.44
2023-05-10T18:17:18.461Z,101119.19
2023-05-10T18:19:45.077Z,101120.09
2023-05-10T18:22:11.745Z,101088.03
2023-05-10T18:24:39.903Z,101129.06
2023-05-10T18:27:08.822Z,101086.28
2023-05-10T18:29:36.186Z,101115.69
2023-05-10T18:32:03.167Z,101120.16
2023-05-10T18:34:29.756Z,101103.25
2023-05-10T18:36:56.758Z,101088.09
2023-05-10T18:39:24.958Z,101108.63
2023-05-10T18:41:51.937Z,101113.09
2023-05-10T18:44:19.073Z,101125.56
2023-05-10T18:46:46.282Z,101104.19
2023-05-10T18:49:13.114Z,101120.22
2023-05-10T18:51:39.715Z,101088.19
2023-05-10T18:54:06.359Z,101066.75
2023-05-10T18:56:33.601Z,101107.78
2023-05-10T18:59:00.383Z,101115.84
2023-05-10T19:01:27.132Z,101104.22
2023-05-10T19:03:53.753Z,101117.59
2023-05-10T19:06:20.774Z,101107.78
2023-05-10T19:08:47.357Z,101097.97
2023-05-10T19:11:14.024Z,101139.88
2023-05-10T19:13:40.700Z,101120.25
2023-05-10T19:16:12.125Z,101053.38
2023-05-10T19:18:39.906Z,101129.19
2023-05-10T19:21:08.359Z,101125.63
2023-05-10T19:23:35.241Z,101060.53
2023-05-10T19:26:01.872Z,101114.91
2023-05-10T19:28:28.570Z,101032.00
2023-05-10T19:30:55.303Z,101127.41
2023-05-10T19:33:22.233Z,101120.25
2023-05-10T19:35:52.113Z,101127.38
2023-05-10T19:38:22.798Z,101143.44
2023-05-10T19:40:57.976Z,101122.03
2023-05-10T19:43:29.571Z,101121.13
2023-05-10T19:46:01.345Z,101159.47
2023-05-10T19:48:28.463Z,101136.25
2023-05-10T19:51:00.629Z,101078.13
2023-05-10T19:53:27.810Z,101109.28
2023-05-10T19:55:55.084Z,101155.66
2023-05-10T19:58:22.006Z,101147.56
2023-05-10T20:00:48.655Z,101171.59
2023-05-10T20:03:16.637Z,101168.84
2023-05-10T20:05:43.330Z,101162.56
2023-05-10T20:08:10.052Z,101186.56
2023-05-10T20:10:36.575Z,101185.63
2023-05-10T20:13:03.196Z,101165.06
2023-05-10T20:15:30.075Z,101184.66
2023-05-10T20:17:56.766Z,101173.03
2023-05-10T20:20:23.603Z,101164.06
2023-05-10T20:22:50.610Z,101123.84
2023-05-10T20:25:18.710Z,101152.41
2023-05-10T20:27:45.371Z,101115.78
2023-05-10T20:30:12.454Z,101193.50
2023-05-10T20:32:39.476Z,101155.09
2023-05-10T20:35:07.107Z,101181.88
2023-05-10T20:37:33.730Z,101156.78
2023-05-10T20:40:00.552Z,101188.00
2023-05-10T20:42:28.180Z,101190.63
2023-05-10T20:44:54.751Z,101173.59
2023-05-10T20:47:23.318Z,101188.66
2023-05-10T20:49:50.058Z,101173.53
2023-05-10T20:52:16.673Z,101187.78
2023-05-10T20:54:43.272Z,101107.31
2023-05-10T20:57:12.576Z,101147.34
2023-05-10T20:59:39.210Z,101171.41
2023-05-10T21:02:05.814Z,101159.81
2023-05-10T21:04:32.647Z,101160.59
2023-05-10T21:06:59.262Z,101161.53
2023-05-10T21:09:25.962Z,101167.81
2023-05-10T21:11:52.695Z,101175.88
2023-05-10T21:14:20.628Z,101167.78
2023-05-10T21:16:47.317Z,101174.91
2023-05-10T21:19:13.912Z,101060.47
2023-05-10T21:21:41.653Z,101177.53
2023-05-10T21:24:08.362Z,101170.34
2023-05-10T21:26:36.095Z,101181.06
2023-05-10T21:29:04.689Z,101155.94
2023-05-10T21:31:31.815Z,101164.81
2023-05-10T21:33:58.425Z,101195.13
2023-05-10T21:36:25.531Z,101184.38
2023-05-10T21:38:52.119Z,101180.69
2023-05-10T21:41:18.803Z,101193.19
2023-05-10T21:43:45.555Z,101201.19
2023-05-10T21:46:13.437Z,101198.53
2023-05-10T21:48:40.094Z,101182.38
2023-05-10T21:51:06.993Z,101188.59
2023-05-10T21:53:33.642Z,101202.88
2023-05-10T21:56:00.257Z,101159.97
2023-05-10T21:58:27.560Z,101171.53
2023-05-10T22:00:54.119Z,101185.00
2023-05-10T22:03:20.881Z,101168.94
2023-05-10T22:05:47.644Z,101154.63
2023-05-10T22:08:17.701Z,101189.53
2023-05-10T22:10:44.515Z,101195.81
2023-05-10T22:13:11.304Z,101198.53
2023-05-10T22:15:38.012Z,101089.53
2023-05-10T22:18:04.990Z,101178.88
2023-05-10T22:20:31.674Z,101190.63
2023-05-10T22:22:58.284Z,101182.63
2023-05-10T22:25:24.912Z,101175.50
2023-05-10T22:27:51.547Z,101184.44
2023-05-10T22:30:19.725Z,101190.78
2023-05-10T22:32:46.637Z,101177.41
2023-05-10T22:35:14.374Z,101193.50
2023-05-10T22:37:41.501Z,101165.81
2023-05-10T22:40:08.768Z,101181.94
2023-05-10T22:42:35.371Z,101186.41
2023-05-10T22:45:02.006Z,101199.78
2023-05-10T22:47:28.754Z,101193.59
2023-05-10T22:49:56.059Z,101169.47
2023-05-10T22:52:22.705Z,101187.31
2023-05-10T22:54:49.426Z,101152.53
2023-05-10T22:57:16.362Z,101193.69
2023-05-10T22:59:43.218Z,101204.38
2023-05-10T23:02:09.956Z,101217.88
2023-05-10T23:04:37.588Z,101208.03
2023-05-10T23:07:04.335Z,101228.59
2023-05-10T23:09:30.906Z,101219.72
2023-05-10T23:11:57.474Z,101201.84
2023-05-10T23:14:24.203Z,101202.69
2023-05-10T23:16:51.143Z,101211.78
2023-05-10T23:19:17.734Z,101202.84
2023-05-10T23:21:44.383Z,101197.47
2023-05-10T23:24:11.631Z,101198.38
2023-05-10T23:26:38.368Z,101210.03
2023-05-10T23:29:04.967Z,101211.88
2023-05-10T23:31:31.634Z,101198.44
2023-05-10T23:33:58.270Z,101196.66
2023-05-10T23:36:24.912Z,101208.25
2023-05-10T23:38:51.874Z,101180.47
2023-05-10T23:41:18.841Z,101108.13
2023-05-10T23:43:45.387Z,101098.38
2023-05-10T23:46:11.974Z,101177.03
2023-05-10T23:48:38.625Z,101185.03
2023-05-10T23:51:05.301Z,101216.41
2023-05-10T23:53:31.929Z,101203.88
2023-05-10T23:55:58.578Z,101179.78
2023-05-10T23:58:25.143Z,101181.63
